Time;durP1;ratioP1;P1;durP2;ratioP2;P2;SDS_P1;SDS_P2;PMS_P1;PMS_P2;Temp;Humidity;BMP_temperature;BMP_pressure;BME280_temperature;BME280_humidity;BME280_pressure;Samples;Min_cycle;Max_cycle;Signal;HPM_P1;HPM_P2
2023/12/28 00:01:43;;;;;;;4.00;3.28;;;9.30;99.90;;;;;;5027837;28;20300;-64
2023/12/28 00:04:09;;;;;;;4.72;3.53;;;9.20;99.90;;;;;;5026501;28;20064;-65
2023/12/28 00:06:35;;;;;;;4.80;3.25;;;9.30;99.90;;;;;;5019077;28;20057;-64
2023/12/28 00:09:02;;;;;;;6.70;3.63;;;9.30;99.90;;;;;;5001569;28;20153;-66
2023/12/28 00:11:31;;;;;;;6.07;3.60;;;9.20;99.90;;;;;;4999260;28;20046;-65
2023/12/28 00:13:57;;;;;;;5.10;3.63;;;9.30;99.90;;;;;;5011661;28;20057;-65
2023/12/28 00:16:24;;;;;;;6.35;3.30;;;9.30;99.90;;;;;;5018074;28;20073;-65
2023/12/28 00:18:50;;;;;;;4.43;3.30;;;9.30;99.90;;;;;;5017632;28;20064;-65
2023/12/28 00:21:16;;;;;;;5.78;3.50;;;9.30;99.90;;;;;;5019163;28;20398;-64
2023/12/28 00:23:42;;;;;;;6.55;3.20;;;9.30;99.90;;;;;;5018339;28;20097;-64
2023/12/28 00:26:09;;;;;;;4.80;3.42;;;9.30;99.90;;;;;;5018257;28;20061;-63
2023/12/28 00:28:35;;;;;;;5.13;3.55;;;9.30;99.90;;;;;;5001476;28;20145;-65
2023/12/28 00:31:01;;;;;;;4.10;3.20;;;9.30;99.90;;;;;;5017603;28;20441;-65
2023/12/28 00:33:28;;;;;;;4.28;3.30;;;9.30;99.90;;;;;;5014527;28;20050;-64
2023/12/28 00:35:54;;;;;;;6.30;3.33;;;9.30;99.90;;;;;;4998412;28;20046;-64
2023/12/28 00:38:20;;;;;;;3.88;2.80;;;9.30;99.90;;;;;;4980650;28;20060;-64
2023/12/28 00:40:47;;;;;;;6.95;3.42;;;9.30;99.90;;;;;;4996660;28;20422;-64
2023/12/28 00:43:13;;;;;;;6.32;3.85;;;9.30;99.90;;;;;;4992127;28;20061;-65
2023/12/28 00:45:40;;;;;;;5.80;3.67;;;9.40;99.90;;;;;;5022458;28;20596;-64
2023/12/28 00:48:06;;;;;;;5.03;3.00;;;9.30;99.90;;;;;;5004952;28;20050;-64
2023/12/28 00:50:33;;;;;;;5.18;3.40;;;9.30;99.90;;;;;;5023924;28;20049;-64
2023/12/28 00:52:59;;;;;;;5.88;3.83;;;9.30;99.90;;;;;;5022255;28;20049;-65
2023/12/28 00:55:27;;;;;;;5.97;3.55;;;9.30;99.90;;;;;;5022662;28;20066;-63
2023/12/28 00:57:53;;;;;;;5.55;3.42;;;9.30;99.90;;;;;;5021814;28;20076;-64
2023/12/28 01:00:20;;;;;;;7.82;3.88;;;9.30;99.90;;;;;;5019926;28;20064;-63
2023/12/28 01:02:46;;;;;;;7.15;3.50;;;9.20;99.90;;;;;;5021622;28;20042;-63
2023/12/28 01:05:14;;;;;;;9.38;3.75;;;9.30;99.90;;;;;;5025429;28;20061;-63
2023/12/28 01:07:41;;;;;;;7.30;3.70;;;9.30;99.90;;;;;;5025160;28;20414;-64
2023/12/28 01:10:07;;;;;;;8.57;3.65;;;9.30;99.90;;;;;;5026734;28;20052;-64
2023/12/28 01:12:34;;;;;;;7.35;4.03;;;9.30;99.90;;;;;;5024758;28;20077;-63
2023/12/28 01:15:00;;;;;;;8.13;4.07;;;9.40;99.90;;;;;;5025872;28;20060;-66
2023/12/28 01:17:26;;;;;;;8.40;4.30;;;9.30;99.90;;;;;;5025304;28;20046;-65
2023/12/28 01:20:01;;;;;;;6.70;4.00;;;9.30;99.90;;;;;;5005885;28;20339;-66
2023/12/28 01:22:42;;;;;;;8.32;4.03;;;9.30;99.90;;;;;;5010233;28;20057;-66
2023/12/28 01:25:08;;;;;;;7.32;4.15;;;9.30;99.90;;;;;;5010210;28;20046;-66
2023/12/28 01:27:34;;;;;;;5.60;3.50;;;9.30;99.90;;;;;;5009990;28;20458;-66
2023/12/28 01:30:01;;;;;;;6.10;3.58;;;9.30;99.90;;;;;;5009800;28;20378;-66
2023/12/28 01:32:27;;;;;;;9.00;4.03;;;9.30;99.90;;;;;;5009731;28;20061;-67
2023/12/28 01:34:53;;;;;;;10.00;3.92;;;9.40;99.90;;;;;;5010086;28;20053;-67
2023/12/28 01:37:19;;;;;;;9.23;3.67;;;9.30;99.90;;;;;;5010148;28;20057;-66
2023/12/28 01:39:46;;;;;;;7.13;3.22;;;9.30;99.90;;;;;;5010272;28;20060;-66
2023/12/28 01:42:12;;;;;;;8.73;4.03;;;9.30;99.90;;;;;;5009997;28;20050;-66
2023/12/28 01:44:39;;;;;;;7.78;3.13;;;9.30;99.90;;;;;;5009687;28;20046;-66
2023/12/28 01:47:06;;;;;;;6.90;3.60;;;9.30;99.90;;;;;;4993648;28;20141;-66
2023/12/28 01:49:34;;;;;;;8.07;3.45;;;9.30;99.90;;;;;;5009870;28;20374;-66
2023/12/28 01:52:02;;;;;;;6.95;3.45;;;9.30;99.90;;;;;;5009919;28;20092;-66
2023/12/28 01:54:29;;;;;;;6.57;3.40;;;9.40;99.90;;;;;;5006349;28;20141;-66
2023/12/28 01:56:55;;;;;;;8.70;3.70;;;9.40;99.90;;;;;;4990353;28;20072;-66
2023/12/28 01:59:22;;;;;;;6.38;3.47;;;9.30;99.90;;;;;;4990334;28;20061;-66
2023/12/28 02:01:48;;;;;;;9.55;3.17;;;9.40;99.90;;;;;;4990279;28;20043;-66
2023/12/28 02:04:25;;;;;;;9.32;3.97;;;9.40;99.90;;;;;;4990237;28;20061;-66
2023/12/28 02:06:57;;;;;;;9.18;3.55;;;9.50;99.90;;;;;;5011869;28;20045;-66
2023/12/28 02:09:24;;;;;;;;;;;9.50;99.90;;;;;;5012330;28;20466;-67
2023/12/28 02:11:53;;;;;;;9.18;3.47;;;9.50;99.90;;;;;;5011361;28;19944;-67
2023/12/28 02:14:21;;;;;;;7.22;3.30;;;9.50;99.90;;;;;;4994693;28;20046;-67
2023/12/28 02:17:00;;;;;;;9.77;3.65;;;9.50;99.90;;;;;;5011357;28;20502;-66
2023/12/28 02:19:40;;;;;;;7.72;3.17;;;9.50;99.90;;;;;;4995209;28;20054;-67
2023/12/28 02:22:09;;;;;;;6.50;2.90;;;9.50;99.90;;;;;;5010839;28;20295;-67
2023/12/28 02:25:07;;;;;;;6.40;2.90;;;9.50;99.90;;;;;;5011374;28;20080;-66
2023/12/28 02:27:39;;;;;;;12.55;3.40;;;9.50;99.90;;;;;;5011497;28;20460;-67
2023/12/28 02:30:08;;;;;;;8.23;2.70;;;9.50;99.90;;;;;;5010832;28;20049;-66
2023/12/28 02:32:46;;;;;;;7.78;2.92;;;9.50;99.90;;;;;;5010993;28;20065;-67
2023/12/28 02:35:20;;;;;;;4.90;3.00;;;9.60;99.90;;;;;;5011211;28;20382;-67
2023/12/28 02:37:52;;;;;;;7.30;3.13;;;9.60;99.90;;;;;;4994265;28;20398;-67
2023/12/28 02:40:19;;;;;;;;;;;9.70;99.90;;;;;;5011111;28;20049;-67
2023/12/28 02:42:45;;;;;;;7.30;2.80;;;9.70;99.90;;;;;;5009141;28;20509;-67
2023/12/28 02:45:11;;;;;;;8.13;2.92;;;9.70;99.90;;;;;;5012603;28;20054;-67
2023/12/28 02:47:38;;;;;;;8.70;2.83;;;9.80;99.90;;;;;;5012861;28;20062;-67
2023/12/28 02:50:05;;;;;;;7.05;2.85;;;9.80;99.90;;;;;;5012242;28;20398;-67
2023/12/28 02:52:32;;;;;;;6.85;2.50;;;9.80;99.90;;;;;;5012858;28;20052;-67
2023/12/28 02:54:58;;;;;;;6.50;2.65;;;9.90;99.90;;;;;;5012282;28;20046;-66
2023/12/28 02:57:24;;;;;;;7.05;2.72;;;9.90;99.90;;;;;;5012417;28;20054;-67
2023/12/28 02:59:51;;;;;;;9.52;2.70;;;10.00;99.90;;;;;;5012703;28;20058;-66
2023/12/28 03:02:17;;;;;;;6.95;2.63;;;10.00;99.90;;;;;;5013155;28;20431;-67
2023/12/28 03:04:45;;;;;;;7.07;2.85;;;10.00;99.90;;;;;;5013160;28;20485;-67
2023/12/28 03:07:11;;;;;;;8.93;2.30;;;10.00;99.90;;;;;;5014816;28;20057;-67
2023/12/28 03:09:39;;;;;;;10.35;2.67;;;10.00;99.90;;;;;;5014186;28;20053;-67
2023/12/28 03:12:06;;;;;;;7.82;2.47;;;10.10;99.90;;;;;;5013637;28;20054;-67
2023/12/28 03:14:32;;;;;;;8.10;2.80;;;10.00;99.90;;;;;;5011791;28;20466;-66
2023/12/28 03:16:59;;;;;;;9.60;2.45;;;10.10;99.90;;;;;;5011948;28;20054;-67
2023/12/28 03:19:26;;;;;;;6.75;2.75;;;10.10;99.90;;;;;;5011916;28;20057;-66
2023/12/28 03:21:52;;;;;;;7.07;2.63;;;10.00;99.90;;;;;;5014329;28;20042;-67
2023/12/28 03:24:19;;;;;;;6.07;2.50;;;10.10;99.90;;;;;;5014941;28;20072;-67
2023/12/28 03:26:45;;;;;;;8.20;2.70;;;10.00;99.90;;;;;;5014304;28;20049;-66
2023/12/28 03:29:11;;;;;;;7.00;3.10;;;10.10;99.90;;;;;;5014073;28;20053;-66
2023/12/28 03:31:40;;;;;;;7.15;2.42;;;10.10;99.90;;;;;;5014320;28;20045;-66
2023/12/28 03:34:07;;;;;;;7.10;2.70;;;10.10;99.90;;;;;;5010150;28;20057;-67
2023/12/28 03:36:34;;;;;;;6.80;3.00;;;10.10;99.90;;;;;;4994114;28;20061;-67
2023/12/28 03:39:01;;;;;;;5.93;2.60;;;10.20;99.90;;;;;;4994114;28;20070;-67
2023/12/28 03:41:28;;;;;;;8.70;2.50;;;10.20;99.90;;;;;;4993940;28;20463;-67
2023/12/28 03:43:55;;;;;;;9.18;3.00;;;10.20;99.90;;;;;;5004662;28;20485;-66
2023/12/28 03:46:21;;;;;;;6.25;2.22;;;10.20;99.90;;;;;;5013255;28;20310;-67
2023/12/28 03:48:47;;;;;;;5.47;2.53;;;10.20;99.90;;;;;;5014140;28;20073;-66
2023/12/28 03:51:15;;;;;;;5.03;2.40;;;10.20;99.90;;;;;;5012748;28;20093;-67
2023/12/28 03:53:44;;;;;;;6.88;2.53;;;10.20;99.90;;;;;;4996790;28;20057;-67
2023/12/28 03:56:24;;;;;;;6.00;2.63;;;10.30;99.90;;;;;;5012192;28;20050;-67
2023/12/28 03:58:51;;;;;;;6.78;2.65;;;10.30;99.90;;;;;;5012614;28;20050;-67
2023/12/28 04:01:19;;;;;;;6.60;2.65;;;10.50;99.90;;;;;;5013631;28;20058;-67
2023/12/28 04:03:46;;;;;;;7.82;2.45;;;10.50;99.90;;;;;;5012233;28;20050;-67
2023/12/28 04:06:12;;;;;;;9.48;2.60;;;10.50;99.90;;;;;;5012877;28;20058;-67
2023/12/28 04:08:40;;;;;;;6.43;2.20;;;10.40;99.90;;;;;;5013488;28;20050;-67
2023/12/28 04:11:06;;;;;;;7.18;2.33;;;10.50;99.90;;;;;;5013328;28;20053;-67
2023/12/28 04:13:33;;;;;;;8.35;2.70;;;10.40;99.90;;;;;;5011548;28;20057;-67
2023/12/28 04:16:00;;;;;;;9.63;2.55;;;10.40;99.90;;;;;;5011524;28;20042;-66
2023/12/28 04:18:26;;;;;;;8.75;2.47;;;10.40;99.90;;;;;;4995299;28;20161;-67
2023/12/28 04:20:53;;;;;;;11.43;3.58;;;10.40;99.90;;;;;;5011290;28;20076;-67
2023/12/28 04:23:19;;;;;;;9.45;2.67;;;10.40;99.90;;;;;;5008216;28;20447;-67
2023/12/28 04:25:47;;;;;;;7.82;2.83;;;10.30;99.90;;;;;;4992619;28;20054;-67
2023/12/28 04:28:14;;;;;;;9.75;2.42;;;10.30;99.90;;;;;;4993584;28;20080;-67
2023/12/28 04:30:40;;;;;;;6.55;2.63;;;10.30;99.90;;;;;;4991728;28;20058;-66
2023/12/28 04:33:07;;;;;;;7.43;2.70;;;10.30;99.90;;;;;;4991887;28;20046;-66
2023/12/28 04:35:33;;;;;;;6.78;2.45;;;10.30;99.90;;;;;;4975609;28;20050;-67
2023/12/28 04:38:00;;;;;;;6.47;2.60;;;10.30;99.90;;;;;;4991809;28;20383;-66
2023/12/28 04:40:28;;;;;;;7.90;2.85;;;10.20;99.90;;;;;;4991140;28;20459;-66
2023/12/28 04:42:54;;;;;;;7.75;2.67;;;10.10;99.90;;;;;;4995031;28;20060;-66
2023/12/28 04:45:22;;;;;;;9.52;2.45;;;10.20;99.90;;;;;;5012088;28;20478;-67
2023/12/28 04:47:49;;;;;;;7.85;3.17;;;10.10;99.90;;;;;;4996164;28;20050;-67
2023/12/28 04:50:15;;;;;;;6.72;2.55;;;10.20;99.90;;;;;;5011285;28;20061;-67
2023/12/28 04:52:42;;;;;;;8.95;2.90;;;10.20;99.90;;;;;;5010555;28;20049;-67
2023/12/28 04:55:08;;;;;;;9.32;2.90;;;10.20;99.90;;;;;;5010725;28;20128;-67
2023/12/28 04:57:34;;;;;;;7.93;2.70;;;10.20;99.90;;;;;;4994469;28;20057;-67
2023/12/28 05:00:02;;;;;;;9.25;2.60;;;10.30;99.90;;;;;;5010402;28;20188;-67
2023/12/28 05:02:31;;;;;;;8.38;2.70;;;10.20;99.90;;;;;;4995226;28;20068;-67
2023/12/28 05:04:58;;;;;;;11.02;2.65;;;10.30;99.90;;;;;;5011015;28;20050;-67
2023/12/28 05:07:24;;;;;;;7.68;2.67;;;10.20;99.90;;;;;;5010431;28;20060;-66
2023/12/28 05:09:51;;;;;;;8.98;2.67;;;10.40;99.90;;;;;;5011164;28;20525;-67
2023/12/28 05:12:18;;;;;;;6.35;2.38;;;10.40;99.90;;;;;;5010976;28;20117;-67
2023/12/28 05:14:45;;;;;;;9.90;2.75;;;10.40;99.90;;;;;;5010233;28;20057;-67
2023/12/28 05:17:13;;;;;;;5.70;2.35;;;10.40;99.90;;;;;;4995772;28;20506;-66
2023/12/28 05:19:39;;;;;;;8.23;2.60;;;10.50;99.90;;;;;;5010369;28;20052;-66
2023/12/28 05:22:08;;;;;;;8.63;2.70;;;10.50;99.90;;;;;;5010180;28;20056;-67
2023/12/28 05:24:35;;;;;;;7.82;2.80;;;10.50;99.90;;;;;;5010846;28;20042;-67
2023/12/28 05:27:02;;;;;;;6.50;2.25;;;10.40;99.90;;;;;;5010833;28;20073;-66
2023/12/28 05:29:29;;;;;;;10.60;3.17;;;10.50;99.90;;;;;;5010188;28;20382;-66
2023/12/28 05:31:56;;;;;;;8.85;2.33;;;10.50;99.90;;;;;;4993808;28;20080;-66
2023/12/28 05:34:24;;;;;;;11.15;2.95;;;10.50;99.90;;;;;;5010440;28;20440;-66
2023/12/28 05:36:50;;;;;;;9.32;2.40;;;10.50;99.90;;;;;;5010332;28;20050;-67
2023/12/28 05:39:17;;;;;;;5.53;2.42;;;10.40;99.90;;;;;;5010699;28;20061;-66
2023/12/28 05:41:47;;;;;;;7.05;2.47;;;10.40;99.90;;;;;;5010029;28;20092;-67
2023/12/28 05:44:14;;;;;;;10.70;2.38;;;10.50;99.90;;;;;;4993783;28;20080;-66
2023/12/28 05:46:40;;;;;;;7.53;2.13;;;10.50;99.90;;;;;;4993562;28;20056;-66
2023/12/28 05:49:06;;;;;;;8.73;2.90;;;10.50;99.90;;;;;;5010399;28;20054;-66
2023/12/28 05:51:40;;;;;;;8.50;2.45;;;10.40;99.90;;;;;;5010162;28;20515;-66
2023/12/28 05:54:08;;;;;;;10.45;2.42;;;10.50;99.90;;;;;;5010462;28;20148;-66
2023/12/28 05:56:34;;;;;;;10.15;3.17;;;10.50;99.90;;;;;;5010201;28;20132;-66
2023/12/28 05:59:01;;;;;;;8.88;2.42;;;10.50;99.90;;;;;;5010705;28;20050;-66
2023/12/28 06:01:28;;;;;;;12.05;3.10;;;10.50;99.90;;;;;;5011219;28;20069;-67
2023/12/28 06:03:55;;;;;;;8.13;2.55;;;10.50;99.90;;;;;;4993668;28;20069;-66
2023/12/28 06:06:24;;;;;;;9.75;2.70;;;10.50;99.90;;;;;;5010178;28;20115;-66
2023/12/28 06:08:51;;;;;;;10.00;2.28;;;10.50;99.90;;;;;;5010081;28;20061;-67
2023/12/28 06:11:18;;;;;;;6.13;2.15;;;10.50;99.90;;;;;;5011492;28;20053;-66
2023/12/28 06:13:44;;;;;;;10.30;2.63;;;10.40;99.90;;;;;;5011128;28;20085;-66
2023/12/28 06:16:10;;;;;;;9.40;2.22;;;10.40;99.90;;;;;;5010992;28;20058;-67
2023/12/28 06:18:36;;;;;;;8.93;2.47;;;10.50;99.90;;;;;;5013637;28;20045;-67
2023/12/28 06:21:06;;;;;;;10.90;2.45;;;10.50;99.90;;;;;;5012995;28;20046;-67
2023/12/28 06:23:32;;;;;;;12.45;2.95;;;10.50;99.90;;;;;;4996590;28;20050;-67
2023/12/28 06:26:04;;;;;;;10.38;2.63;;;10.50;99.90;;;;;;5013242;28;20060;-66
2023/12/28 06:28:31;;;;;;;8.90;2.78;;;10.60;99.90;;;;;;4996912;28;20057;-67
2023/12/28 06:31:00;;;;;;;9.20;2.47;;;10.60;99.90;;;;;;5013896;28;20050;-66
2023/12/28 06:33:29;;;;;;;10.93;2.42;;;10.60;99.90;;;;;;5012988;28;20054;-66
2023/12/28 06:35:58;;;;;;;9.82;2.92;;;10.60;99.90;;;;;;5013185;28;20056;-65
2023/12/28 06:38:25;;;;;;;7.80;2.38;;;10.60;99.90;;;;;;5013496;28;20137;-67
2023/12/28 06:40:51;;;;;;;9.60;2.33;;;10.70;99.90;;;;;;5013138;28;20389;-66
2023/12/28 06:43:18;;;;;;;9.90;2.28;;;10.70;99.90;;;;;;5029712;28;20042;-66
2023/12/28 06:45:45;;;;;;;11.13;2.97;;;10.70;99.90;;;;;;5014792;28;20053;-66
2023/12/28 06:48:11;;;;;;;17.00;3.15;;;10.80;99.90;;;;;;5014466;28;20061;-66
2023/12/28 06:50:41;;;;;;;11.68;2.75;;;10.70;99.90;;;;;;5013879;28;20054;-67
2023/12/28 06:53:07;;;;;;;11.95;2.63;;;10.70;99.90;;;;;;5011996;28;20057;-66
2023/12/28 06:55:34;;;;;;;8.57;2.28;;;10.80;99.90;;;;;;5011953;28;20050;-67
2023/12/28 06:58:01;;;;;;;10.32;2.72;;;10.70;99.90;;;;;;5012548;28;20045;-67
2023/12/28 07:00:27;;;;;;;10.68;2.80;;;10.80;99.90;;;;;;5012630;28;20054;-66
2023/12/28 07:02:54;;;;;;;10.38;2.88;;;10.70;99.90;;;;;;4996429;28;20050;-66
2023/12/28 07:05:21;;;;;;;9.05;2.60;;;10.70;99.90;;;;;;4996723;28;20050;-67
2023/12/28 07:07:48;;;;;;;7.72;2.58;;;10.70;99.90;;;;;;4996536;28;20561;-66
2023/12/28 07:10:15;;;;;;;12.55;2.92;;;10.70;99.90;;;;;;5011914;28;20089;-67
2023/12/28 07:12:41;;;;;;;12.10;2.67;;;10.80;99.90;;;;;;4996367;28;20470;-67
2023/12/28 07:15:13;;;;;;;12.85;3.03;;;10.70;99.90;;;;;;5009519;28;20088;-67
2023/12/28 07:17:40;;;;;;;8.52;2.58;;;10.70;99.90;;;;;;4989354;28;20073;-67
2023/12/28 07:20:09;;;;;;;11.82;2.90;;;10.70;99.90;;;;;;4982297;28;20510;-67
2023/12/28 07:22:36;;;;;;;13.75;2.92;;;10.70;99.90;;;;;;5002187;28;20041;-67
2023/12/28 07:25:02;;;;;;;11.45;2.85;;;10.70;99.90;;;;;;5005066;28;20049;-67
2023/12/28 07:27:29;;;;;;;9.75;2.45;;;10.70;99.90;;;;;;5003713;28;20449;-67
2023/12/28 07:29:58;;;;;;;13.40;2.80;;;10.60;99.90;;;;;;4987763;28;20042;-67
2023/12/28 07:32:26;;;;;;;14.70;2.85;;;10.70;99.90;;;;;;4989894;28;20064;-64
2023/12/28 07:34:54;;;;;;;12.20;2.60;;;10.80;99.90;;;;;;4987754;28;20046;-65
2023/12/28 07:37:20;;;;;;;14.73;3.03;;;10.80;99.90;;;;;;5001018;28;20042;-67
2023/12/28 07:39:47;;;;;;;19.52;3.10;;;10.80;99.90;;;;;;5003634;28;20049;-64
2023/12/28 07:42:16;;;;;;;10.45;2.63;;;10.80;99.90;;;;;;5000651;28;20080;-65
2023/12/28 07:44:43;;;;;;;11.77;3.00;;;10.70;99.90;;;;;;5007215;28;20046;-65
2023/12/28 07:47:09;;;;;;;14.52;3.17;;;10.70;99.90;;;;;;4995369;28;20050;-65
2023/12/28 07:49:37;;;;;;;15.93;2.90;;;10.70;99.90;;;;;;4991703;28;20054;-65
2023/12/28 07:52:03;;;;;;;13.15;3.33;;;10.60;99.90;;;;;;5008157;28;20050;-63
2023/12/28 07:54:29;;;;;;;11.85;2.80;;;10.70;99.90;;;;;;4994694;28;20443;-64
2023/12/28 07:56:56;;;;;;;14.65;2.70;;;10.70;99.90;;;;;;5010612;28;20050;-64
2023/12/28 07:59:22;;;;;;;12.45;3.22;;;10.60;99.90;;;;;;4994714;28;20037;-64
2023/12/28 08:01:50;;;;;;;13.40;2.92;;;10.60;99.90;;;;;;5011540;28;20377;-64
2023/12/28 08:04:16;;;;;;;15.38;2.92;;;10.60;99.90;;;;;;5009969;28;20366;-64
2023/12/28 08:06:44;;;;;;;12.48;2.55;;;10.60;99.90;;;;;;5009398;28;20452;-65
2023/12/28 08:09:10;;;;;;;11.13;2.92;;;10.60;99.90;;;;;;5010772;28;20059;-66
2023/12/28 08:11:38;;;;;;;14.48;3.80;;;10.60;99.90;;;;;;5010645;28;20466;-66
2023/12/28 08:14:05;;;;;;;15.40;2.90;;;10.70;99.90;;;;;;4994303;28;20069;-66
2023/12/28 08:16:41;;;;;;;13.05;3.10;;;10.70;99.90;;;;;;4995459;28;20455;-66
2023/12/28 08:19:07;;;;;;;12.23;2.80;;;10.70;99.90;;;;;;5010377;28;20045;-67
2023/12/28 08:21:35;;;;;;;13.55;3.35;;;10.70;99.90;;;;;;5010310;28;20374;-66
2023/12/28 08:24:02;;;;;;;12.45;3.15;;;10.70;99.90;;;;;;4991612;28;20045;-66
2023/12/28 08:26:28;;;;;;;11.73;2.90;;;10.70;99.90;;;;;;4994320;28;20065;-66
2023/12/28 08:28:55;;;;;;;18.63;3.72;;;10.60;99.90;;;;;;5010210;28;20085;-66
2023/12/28 08:31:22;;;;;;;14.48;3.30;;;10.60;99.90;;;;;;4994003;28;20049;-66
2023/12/28 08:33:48;;;;;;;14.77;3.67;;;10.60;99.90;;;;;;5010442;28;20485;-66
2023/12/28 08:36:17;;;;;;;13.60;3.33;;;10.60;99.90;;;;;;5010370;28;20461;-66
2023/12/28 08:38:44;;;;;;;16.65;4.03;;;10.60;99.90;;;;;;4994643;28;20046;-66
2023/12/28 08:41:23;;;;;;;12.68;2.80;;;10.70;99.90;;;;;;5009131;28;20053;-67
2023/12/28 08:43:52;;;;;;;12.25;3.53;;;10.70;99.90;;;;;;5007744;28;20383;-66
2023/12/28 08:46:19;;;;;;;20.95;3.38;;;10.70;99.90;;;;;;5003055;28;20060;-66
2023/12/28 08:48:45;;;;;;;11.75;3.03;;;10.70;99.90;;;;;;5011135;28;20058;-67
2023/12/28 08:51:12;;;;;;;13.32;3.38;;;10.80;99.90;;;;;;5010823;28;20076;-66
2023/12/28 08:53:39;;;;;;;16.33;3.83;;;10.80;99.90;;;;;;5008827;28;20374;-66
2023/12/28 08:56:21;;;;;;;14.85;3.63;;;10.80;99.90;;;;;;5009137;28;20068;-66
2023/12/28 08:58:51;;;;;;;13.40;3.55;;;10.80;99.90;;;;;;5012262;28;20045;-66
2023/12/28 09:01:22;;;;;;;11.30;3.00;;;10.80;99.90;;;;;;5009923;28;20061;-66
2023/12/28 09:03:52;;;;;;;14.73;2.78;;;10.80;99.90;;;;;;5010713;28;20046;-67
2023/12/28 09:06:19;;;;;;;14.18;3.10;;;10.80;99.90;;;;;;5010289;28;20344;-66
2023/12/28 09:08:50;;;;;;;13.45;2.90;;;10.80;99.90;;;;;;5010987;28;20056;-66
2023/12/28 09:11:17;;;;;;;13.32;3.35;;;10.80;99.90;;;;;;5010112;28;20046;-66
2023/12/28 09:13:44;;;;;;;14.43;2.70;;;10.90;99.90;;;;;;5009116;28;20516;-66
2023/12/28 09:16:12;;;;;;;14.65;2.92;;;10.90;99.90;;;;;;5010007;28;20359;-66
2023/12/28 09:18:39;;;;;;;11.05;2.88;;;11.00;99.90;;;;;;5008462;28;20061;-67
2023/12/28 09:21:07;;;;;;;9.27;2.95;;;10.90;99.90;;;;;;5007734;28;20054;-67
2023/12/28 09:23:34;;;;;;;15.02;4.15;;;10.90;99.90;;;;;;4993561;28;20042;-67
2023/12/28 09:26:08;;;;;;;14.27;4.05;;;11.00;99.90;;;;;;5008897;28;20049;-67
2023/12/28 09:28:35;;;;;;;10.45;2.85;;;10.90;99.90;;;;;;4992825;28;20049;-67
2023/12/28 09:31:04;;;;;;;11.30;3.30;;;10.90;99.90;;;;;;5007353;28;20049;-66
2023/12/28 09:33:30;;;;;;;13.27;2.70;;;10.90;99.90;;;;;;5009874;28;20432;-66
2023/12/28 09:35:56;;;;;;;14.45;2.70;;;10.90;99.90;;;;;;5008833;28;20068;-66
2023/12/28 09:38:23;;;;;;;18.13;2.70;;;10.90;99.90;;;;;;5009017;28;20160;-67
2023/12/28 09:40:54;;;;;;;12.50;3.00;;;10.90;99.90;;;;;;5008897;28;20042;-67
2023/12/28 09:43:25;;;;;;;16.30;2.70;;;10.90;99.90;;;;;;5008281;28;20659;-66
2023/12/28 09:45:55;;;;;;;13.48;3.35;;;10.90;99.90;;;;;;5008688;28;20050;-66
2023/12/28 09:48:22;;;;;;;15.55;3.88;;;10.90;99.90;;;;;;4992129;28;20130;-66
2023/12/28 09:50:54;;;;;;;17.88;3.75;;;11.00;99.90;;;;;;4991603;28;20053;-67
2023/12/28 09:53:26;;;;;;;13.88;3.05;;;11.00;99.90;;;;;;5003374;28;20180;-67
2023/12/28 09:55:53;;;;;;;15.07;3.72;;;11.00;99.90;;;;;;4992407;28;20389;-67
2023/12/28 09:58:21;;;;;;;13.23;3.08;;;11.10;99.90;;;;;;5008682;28;20466;-67
2023/12/28 10:00:49;;;;;;;14.02;3.42;;;11.00;99.90;;;;;;5005804;28;20054;-66
2023/12/28 10:03:17;;;;;;;9.98;3.03;;;11.20;99.90;;;;;;5008190;28;20052;-67
2023/12/28 10:05:45;;;;;;;21.00;3.70;;;11.10;99.90;;;;;;5006546;28;20053;-67
2023/12/28 10:08:13;;;;;;;16.45;3.08;;;11.10;99.90;;;;;;4991599;28;20046;-67
2023/12/28 10:10:40;;;;;;;13.82;3.40;;;11.10;99.90;;;;;;4992247;28;20046;-67
2023/12/28 10:13:07;;;;;;;17.60;3.58;;;11.20;99.90;;;;;;5009388;28;20038;-67
2023/12/28 10:15:35;;;;;;;15.50;3.00;;;11.30;99.90;;;;;;5007944;28;20062;-67
2023/12/28 10:18:02;;;;;;;12.50;3.25;;;11.20;99.90;;;;;;5007748;28;20398;-67
2023/12/28 10:20:29;;;;;;;13.77;3.45;;;11.20;99.90;;;;;;4991871;28;20053;-67
2023/12/28 10:22:57;;;;;;;12.10;3.60;;;11.20;99.90;;;;;;5007678;28;20054;-67
2023/12/28 10:25:26;;;;;;;10.57;2.72;;;11.20;99.90;;;;;;5005425;28;20057;-66
2023/12/28 10:27:53;;;;;;;14.68;3.03;;;11.20;99.90;;;;;;5008296;28;20065;-67
2023/12/28 10:30:21;;;;;;;11.80;2.70;;;11.20;99.90;;;;;;5007691;28;20056;-67
2023/12/28 10:32:47;;;;;;;12.02;3.00;;;11.20;99.90;;;;;;5005271;28;20049;-68
2023/12/28 10:35:15;;;;;;;12.23;2.97;;;11.10;99.90;;;;;;5007844;28;20490;-67
2023/12/28 10:37:43;;;;;;;14.23;3.95;;;11.10;99.90;;;;;;4991682;28;20060;-67
2023/12/28 10:40:17;;;;;;;12.52;2.92;;;11.00;99.90;;;;;;5007911;28;20061;-67
2023/12/28 10:42:54;;;;;;;14.48;3.67;;;11.20;99.90;;;;;;5009557;28;20049;-67
2023/12/28 10:45:25;;;;;;;13.65;3.25;;;11.10;99.90;;;;;;4992370;28;20073;-67
2023/12/28 10:48:05;;;;;;;16.77;3.35;;;11.10;99.90;;;;;;5008354;28;20058;-67
2023/12/28 10:50:39;;;;;;;17.25;3.53;;;11.10;99.90;;;;;;5007627;28;20054;-68
2023/12/28 10:53:18;;;;;;;12.93;3.53;;;11.10;99.90;;;;;;5007850;28;20058;-67
2023/12/28 10:56:06;;;;;;;14.57;2.88;;;11.10;99.90;;;;;;4997491;28;20567;-67
2023/12/28 10:58:58;;;;;;;10.88;2.40;;;11.10;99.90;;;;;;5004297;28;20050;-67
2023/12/28 11:01:33;;;;;;;13.75;3.22;;;11.20;99.90;;;;;;4972271;28;20069;-67
2023/12/28 11:04:09;;;;;;;13.32;3.08;;;11.20;99.90;;;;;;4997870;28;20134;-67
2023/12/28 11:06:37;;;;;;;13.75;2.72;;;11.20;99.90;;;;;;5011887;28;20537;-66
2023/12/28 11:09:07;;;;;;;15.27;2.92;;;11.30;99.90;;;;;;5010567;28;20046;-68
2023/12/28 11:11:36;;;;;;;14.27;2.80;;;11.30;99.90;;;;;;4994899;28;20081;-67
2023/12/28 11:14:03;;;;;;;16.85;3.55;;;11.40;99.90;;;;;;5009974;28;20389;-66
2023/12/28 11:16:30;;;;;;;11.70;3.92;;;11.40;99.90;;;;;;5011208;28;20053;-66
2023/12/28 11:18:58;;;;;;;12.15;2.90;;;11.40;99.90;;;;;;5011190;28;20073;-66
2023/12/28 11:21:25;;;;;;;13.75;3.28;;;11.50;99.90;;;;;;5010876;28;20057;-67
2023/12/28 11:23:52;;;;;;;14.93;3.38;;;11.40;99.90;;;;;;5010961;28;20438;-67
2023/12/28 11:26:20;;;;;;;13.10;3.30;;;11.40;99.90;;;;;;5011004;28;20107;-67
2023/12/28 11:28:47;;;;;;;11.32;3.03;;;11.40;99.90;;;;;;5012371;28;20069;-67
2023/12/28 11:31:15;;;;;;;13.50;2.92;;;11.40;99.90;;;;;;4994131;28;20057;-65
2023/12/28 11:33:52;;;;;;;10.82;3.10;;;11.40;99.90;;;;;;4992454;28;20168;-66
2023/12/28 11:36:44;;;;;;;17.40;2.80;;;11.40;99.90;;;;;;5007947;28;20057;-66
2023/12/28 11:39:11;;;;;;;18.52;3.00;;;11.30;99.90;;;;;;5009437;28;20390;-66
2023/12/28 11:41:38;;;;;;;14.38;3.33;;;11.30;99.90;;;;;;5011061;28;20394;-67
2023/12/28 11:44:06;;;;;;;13.80;3.03;;;11.30;99.90;;;;;;5010362;28;20053;-66
2023/12/28 11:46:35;;;;;;;16.23;3.22;;;11.30;99.90;;;;;;4992957;28;20049;-67
2023/12/28 11:49:06;;;;;;;14.50;3.38;;;11.30;99.90;;;;;;4994085;28;20049;-66
2023/12/28 11:51:38;;;;;;;14.85;3.13;;;11.20;99.90;;;;;;5010917;28;20054;-67
2023/12/28 11:54:06;;;;;;;14.40;3.30;;;11.30;99.90;;;;;;4994239;28;20104;-66
2023/12/28 11:56:36;;;;;;;17.23;3.90;;;11.30;99.90;;;;;;4993920;28;20068;-67
2023/12/28 11:59:02;;;;;;;12.48;3.10;;;11.30;99.90;;;;;;5010813;28;20206;-66
2023/12/28 12:01:29;;;;;;;11.38;2.90;;;11.30;99.90;;;;;;5010239;28;20461;-66
2023/12/28 12:03:55;;;;;;;14.35;3.13;;;11.20;99.90;;;;;;5009482;28;20064;-67
2023/12/28 12:06:22;;;;;;;11.40;2.60;;;11.30;99.90;;;;;;5009160;28;20048;-66
2023/12/28 12:08:49;;;;;;;15.90;3.10;;;11.40;99.90;;;;;;4992241;28;20481;-66
2023/12/28 12:11:18;;;;;;;13.63;3.33;;;11.40;99.90;;;;;;4991673;28;20064;-66
2023/12/28 12:13:45;;;;;;;12.68;2.78;;;11.40;99.90;;;;;;5008315;28;20046;-67
2023/12/28 12:16:14;;;;;;;15.13;3.13;;;11.40;99.90;;;;;;5009531;28;20045;-67
2023/12/28 12:18:40;;;;;;;13.35;3.22;;;11.40;99.90;;;;;;5010723;28;20045;-67
2023/12/28 12:21:06;;;;;;;11.57;3.10;;;11.40;99.90;;;;;;5009689;28;20466;-66
2023/12/28 12:23:33;;;;;;;15.75;2.95;;;11.50;99.90;;;;;;5010557;28;20046;-67
2023/12/28 12:26:06;;;;;;;14.43;3.65;;;11.40;99.90;;;;;;4992964;28;20060;-66
2023/12/28 12:28:32;;;;;;;14.85;6.57;;;11.40;99.90;;;;;;5009971;28;20046;-66
2023/12/28 12:31:03;;;;;;;16.42;4.38;;;11.60;99.90;;;;;;5007235;28;20534;-66
2023/12/28 12:33:29;;;;;;;13.75;5.45;;;11.70;99.90;;;;;;5012603;28;20053;-66
2023/12/28 12:35:56;;;;;;;13.45;3.70;;;11.80;99.90;;;;;;5011351;28;20061;-66
2023/12/28 12:38:23;;;;;;;14.18;3.72;;;11.80;99.90;;;;;;5012539;28;20050;-66
2023/12/28 12:40:52;;;;;;;14.75;3.42;;;11.90;99.90;;;;;;5012123;28;20125;-67
2023/12/28 12:43:19;;;;;;;12.20;3.60;;;12.00;99.90;;;;;;4996418;28;20065;-67
2023/12/28 12:45:45;;;;;;;14.55;3.10;;;12.10;99.90;;;;;;5013508;28;20343;-67
2023/12/28 12:48:12;;;;;;;17.08;3.60;;;12.10;99.90;;;;;;5012005;28;20378;-67
2023/12/28 12:50:39;;;;;;;17.02;4.20;;;12.10;99.90;;;;;;5011382;28;20053;-66